sensor_id;sensor_type;location;lat;lon;timestamp;P1;durP1;ratioP1;P2;durP2;ratioP2
4051;SDS011;2040;50.924;11.604;2022-08-16T00:00:50;11.60;;;7.80;;
4051;SDS011;2040;50.924;11.604;2022-08-16T00:03:16;16.30;;;8.77;;
4051;SDS011;2040;50.924;11.604;2022-08-16T00:05:42;12.27;;;7.90;;
4051;SDS011;2040;50.924;11.604;2022-08-16T00:08:08;11.90;;;7.97;;
4051;SDS011;2040;50.924;11.604;2022-08-16T00:10:34;13.60;;;8.40;;
4051;SDS011;2040;50.924;11.604;2022-08-16T00:13:01;19.97;;;8.37;;
4051;SDS011;2040;50.924;11.604;2022-08-16T00:15:32;10.80;;;7.40;;
4051;SDS011;2040;50.924;11.604;2022-08-16T00:18:09;10.97;;;8.17;;
4051;SDS011;2040;50.924;11.604;2022-08-16T00:20:35;13.37;;;9.13;;
4051;SDS011;2040;50.924;11.604;2022-08-16T00:23:03;12.13;;;8.10;;
4051;SDS011;2040;50.924;11.604;2022-08-16T00:25:28;13.87;;;9.33;;
4051;SDS011;2040;50.924;11.604;2022-08-16T00:27:54;13.90;;;9.30;;
4051;SDS011;2040;50.924;11.604;2022-08-16T00:30:20;17.13;;;9.57;;
4051;SDS011;2040;50.924;11.604;2022-08-16T00:32:48;14.03;;;9.60;;
4051;SDS011;2040;50.924;11.604;2022-08-16T00:35:18;13.23;;;9.80;;
4051;SDS011;2040;50.924;11.604;2022-08-16T00:37:48;21.07;;;10.30;;
4051;SDS011;2040;50.924;11.604;2022-08-16T00:40:21;13.63;;;9.27;;
4051;SDS011;2040;50.924;11.604;2022-08-16T00:42:49;14.20;;;9.00;;
4051;SDS011;2040;50.924;11.604;2022-08-16T00:47:59;15.10;;;8.80;;
4051;SDS011;2040;50.924;11.604;2022-08-16T00:50:29;13.63;;;8.80;;
4051;SDS011;2040;50.924;11.604;2022-08-16T00:52:56;14.37;;;8.90;;
4051;SDS011;2040;50.924;11.604;2022-08-16T00:55:21;17.80;;;9.13;;
4051;SDS011;2040;50.924;11.604;2022-08-16T00:57:49;15.03;;;9.40;;
4051;SDS011;2040;50.924;11.604;2022-08-16T01:00:17;19.30;;;9.57;;
4051;SDS011;2040;50.924;11.604;2022-08-16T01:02:43;24.70;;;10.90;;
4051;SDS011;2040;50.924;11.604;2022-08-16T01:05:08;12.47;;;9.50;;
4051;SDS011;2040;50.924;11.604;2022-08-16T01:07:34;12.57;;;7.50;;
4051;SDS011;2040;50.924;11.604;2022-08-16T01:10:02;14.47;;;9.30;;
4051;SDS011;2040;50.924;11.604;2022-08-16T01:12:28;18.90;;;8.83;;
4051;SDS011;2040;50.924;11.604;2022-08-16T01:14:56;15.03;;;10.10;;
4051;SDS011;2040;50.924;11.604;2022-08-16T01:17:23;15.30;;;10.30;;
4051;SDS011;2040;50.924;11.604;2022-08-16T01:19:51;15.60;;;9.10;;
4051;SDS011;2040;50.924;11.604;2022-08-16T01:25:21;14.03;;;8.67;;
4051;SDS011;2040;50.924;11.604;2022-08-16T01:27:57;16.57;;;9.67;;
4051;SDS011;2040;50.924;11.604;2022-08-16T01:30:26;16.00;;;10.60;;
4051;SDS011;2040;50.924;11.604;2022-08-16T01:32:58;16.07;;;10.80;;
4051;SDS011;2040;50.924;11.604;2022-08-16T01:35:27;13.63;;;9.70;;
4051;SDS011;2040;50.924;11.604;2022-08-16T01:37:54;15.77;;;9.70;;
4051;SDS011;2040;50.924;11.604;2022-08-16T01:40:23;13.57;;;9.50;;
4051;SDS011;2040;50.924;11.604;2022-08-16T01:42:51;15.50;;;9.13;;
4051;SDS011;2040;50.924;11.604;2022-08-16T01:45:18;17.30;;;11.00;;
4051;SDS011;2040;50.924;11.604;2022-08-16T01:47:46;15.33;;;9.23;;
4051;SDS011;2040;50.924;11.604;2022-08-16T01:50:14;14.50;;;9.47;;
4051;SDS011;2040;50.924;11.604;2022-08-16T01:52:40;16.27;;;9.17;;
4051;SDS011;2040;50.924;11.604;2022-08-16T01:55:07;12.20;;;7.57;;
4051;SDS011;2040;50.924;11.604;2022-08-16T01:57:33;9.07;;;6.17;;
4051;SDS011;2040;50.924;11.604;2022-08-16T01:59:59;9.43;;;6.93;;
4051;SDS011;2040;50.924;11.604;2022-08-16T02:02:26;10.53;;;7.37;;
4051;SDS011;2040;50.924;11.604;2022-08-16T02:04:52;9.47;;;7.00;;
4051;SDS011;2040;50.924;11.604;2022-08-16T02:07:19;10.00;;;5.57;;
4051;SDS011;2040;50.924;11.604;2022-08-16T02:09:45;7.83;;;5.60;;
4051;SDS011;2040;50.924;11.604;2022-08-16T02:12:12;8.00;;;5.40;;
4051;SDS011;2040;50.924;11.604;2022-08-16T02:14:40;10.33;;;5.63;;
4051;SDS011;2040;50.924;11.604;2022-08-16T02:17:07;16.17;;;8.17;;
4051;SDS011;2040;50.924;11.604;2022-08-16T02:19:36;11.27;;;7.20;;
4051;SDS011;2040;50.924;11.604;2022-08-16T02:22:05;10.17;;;6.00;;
4051;SDS011;2040;50.924;11.604;2022-08-16T02:24:35;10.10;;;6.80;;
4051;SDS011;2040;50.924;11.604;2022-08-16T02:27:02;18.00;;;8.87;;
4051;SDS011;2040;50.924;11.604;2022-08-16T02:29:28;17.50;;;9.13;;
4051;SDS011;2040;50.924;11.604;2022-08-16T02:31:54;19.90;;;8.10;;
4051;SDS011;2040;50.924;11.604;2022-08-16T02:34:20;10.87;;;7.50;;
4051;SDS011;2040;50.924;11.604;2022-08-16T02:36:46;20.40;;;10.17;;
4051;SDS011;2040;50.924;11.604;2022-08-16T02:39:12;14.00;;;8.23;;
4051;SDS011;2040;50.924;11.604;2022-08-16T02:41:40;12.47;;;8.40;;
4051;SDS011;2040;50.924;11.604;2022-08-16T02:44:08;17.90;;;8.30;;
4051;SDS011;2040;50.924;11.604;2022-08-16T02:46:35;10.47;;;7.50;;
4051;SDS011;2040;50.924;11.604;2022-08-16T02:49:02;9.53;;;6.57;;
4051;SDS011;2040;50.924;11.604;2022-08-16T02:51:28;8.87;;;7.00;;
4051;SDS011;2040;50.924;11.604;2022-08-16T02:53:54;7.80;;;5.30;;
4051;SDS011;2040;50.924;11.604;2022-08-16T02:56:20;7.63;;;5.70;;
4051;SDS011;2040;50.924;11.604;2022-08-16T02:58:47;11.33;;;5.37;;
4051;SDS011;2040;50.924;11.604;2022-08-16T03:01:15;8.53;;;4.73;;
4051;SDS011;2040;50.924;11.604;2022-08-16T03:03:43;10.63;;;5.40;;
4051;SDS011;2040;50.924;11.604;2022-08-16T03:06:08;9.13;;;5.00;;
4051;SDS011;2040;50.924;11.604;2022-08-16T03:08:34;9.20;;;5.90;;
4051;SDS011;2040;50.924;11.604;2022-08-16T03:11:00;11.80;;;6.27;;
4051;SDS011;2040;50.924;11.604;2022-08-16T03:13:26;12.13;;;7.03;;
4051;SDS011;2040;50.924;11.604;2022-08-16T03:15:51;16.63;;;5.67;;
4051;SDS011;2040;50.924;11.604;2022-08-16T03:18:17;12.97;;;7.07;;
4051;SDS011;2040;50.924;11.604;2022-08-16T03:20:42;9.30;;;6.80;;
4051;SDS011;2040;50.924;11.604;2022-08-16T03:23:08;10.93;;;7.20;;
4051;SDS011;2040;50.924;11.604;2022-08-16T03:25:34;12.50;;;8.00;;
4051;SDS011;2040;50.924;11.604;2022-08-16T03:28:01;12.40;;;8.57;;
4051;SDS011;2040;50.924;11.604;2022-08-16T03:30:28;12.03;;;8.80;;
4051;SDS011;2040;50.924;11.604;2022-08-16T03:32:55;18.60;;;8.60;;
4051;SDS011;2040;50.924;11.604;2022-08-16T03:35:22;14.00;;;8.37;;
4051;SDS011;2040;50.924;11.604;2022-08-16T03:37:57;12.53;;;8.97;;
4051;SDS011;2040;50.924;11.604;2022-08-16T03:40:25;16.10;;;8.27;;
4051;SDS011;2040;50.924;11.604;2022-08-16T03:42:51;13.20;;;8.80;;
4051;SDS011;2040;50.924;11.604;2022-08-16T03:45:18;13.83;;;9.80;;
4051;SDS011;2040;50.924;11.604;2022-08-16T03:47:44;16.00;;;9.53;;
4051;SDS011;2040;50.924;11.604;2022-08-16T03:50:12;11.40;;;8.57;;
4051;SDS011;2040;50.924;11.604;2022-08-16T03:52:39;12.70;;;8.80;;
4051;SDS011;2040;50.924;11.604;2022-08-16T03:55:06;13.60;;;9.27;;
4051;SDS011;2040;50.924;11.604;2022-08-16T03:57:33;12.40;;;9.17;;
4051;SDS011;2040;50.924;11.604;2022-08-16T03:59:59;18.00;;;9.53;;
4051;SDS011;2040;50.924;11.604;2022-08-16T04:02:24;12.30;;;9.13;;
4051;SDS011;2040;50.924;11.604;2022-08-16T04:04:50;11.80;;;8.40;;
4051;SDS011;2040;50.924;11.604;2022-08-16T04:07:18;10.73;;;7.83;;
4051;SDS011;2040;50.924;11.604;2022-08-16T04:09:43;14.27;;;9.27;;
4051;SDS011;2040;50.924;11.604;2022-08-16T04:12:09;14.57;;;8.97;;
4051;SDS011;2040;50.924;11.604;2022-08-16T04:14:47;16.63;;;9.80;;
4051;SDS011;2040;50.924;11.604;2022-08-16T04:17:41;10.37;;;6.57;;
4051;SDS011;2040;50.924;11.604;2022-08-16T04:20:22;11.47;;;7.50;;
4051;SDS011;2040;50.924;11.604;2022-08-16T04:22:51;15.57;;;8.83;;
4051;SDS011;2040;50.924;11.604;2022-08-16T04:32:19;12.30;;;8.33;;
4051;SDS011;2040;50.924;11.604;2022-08-16T04:38:48;12.20;;;8.83;;
4051;SDS011;2040;50.924;11.604;2022-08-16T04:44:33;10.27;;;7.90;;
4051;SDS011;2040;50.924;11.604;2022-08-16T04:54:32;12.73;;;8.07;;
4051;SDS011;2040;50.924;11.604;2022-08-16T04:57:07;13.13;;;8.47;;
4051;SDS011;2040;50.924;11.604;2022-08-16T05:01:15;16.00;;;7.90;;
4051;SDS011;2040;50.924;11.604;2022-08-16T05:04:08;11.70;;;8.50;;
4051;SDS011;2040;50.924;11.604;2022-08-16T05:07:02;15.20;;;9.80;;
4051;SDS011;2040;50.924;11.604;2022-08-16T05:09:49;13.07;;;8.53;;
4051;SDS011;2040;50.924;11.604;2022-08-16T05:12:31;16.43;;;7.27;;
4051;SDS011;2040;50.924;11.604;2022-08-16T05:15:14;10.90;;;7.20;;
4051;SDS011;2040;50.924;11.604;2022-08-16T05:18:13;12.70;;;7.10;;
4051;SDS011;2040;50.924;11.604;2022-08-16T05:20:41;13.30;;;8.00;;
4051;SDS011;2040;50.924;11.604;2022-08-16T05:23:13;13.50;;;8.07;;
4051;SDS011;2040;50.924;11.604;2022-08-16T05:25:42;14.33;;;7.40;;
4051;SDS011;2040;50.924;11.604;2022-08-16T05:28:10;10.40;;;6.50;;
4051;SDS011;2040;50.924;11.604;2022-08-16T05:30:36;10.70;;;6.40;;
4051;SDS011;2040;50.924;11.604;2022-08-16T05:33:03;8.00;;;5.80;;
4051;SDS011;2040;50.924;11.604;2022-08-16T05:35:30;14.43;;;5.83;;
4051;SDS011;2040;50.924;11.604;2022-08-16T05:37:56;16.53;;;5.43;;
4051;SDS011;2040;50.924;11.604;2022-08-16T05:40:21;13.77;;;6.03;;
4051;SDS011;2040;50.924;11.604;2022-08-16T05:42:48;9.50;;;6.20;;
4051;SDS011;2040;50.924;11.604;2022-08-16T05:45:14;10.27;;;6.80;;
4051;SDS011;2040;50.924;11.604;2022-08-16T05:47:39;12.13;;;6.53;;
4051;SDS011;2040;50.924;11.604;2022-08-16T05:50:05;11.70;;;6.53;;
4051;SDS011;2040;50.924;11.604;2022-08-16T05:52:32;16.50;;;8.87;;
4051;SDS011;2040;50.924;11.604;2022-08-16T05:54:58;11.50;;;6.50;;
4051;SDS011;2040;50.924;11.604;2022-08-16T05:57:25;10.10;;;7.30;;
4051;SDS011;2040;50.924;11.604;2022-08-16T05:59:50;13.93;;;7.87;;
4051;SDS011;2040;50.924;11.604;2022-08-16T06:02:16;14.60;;;7.67;;
4051;SDS011;2040;50.924;11.604;2022-08-16T06:04:42;11.93;;;7.60;;
4051;SDS011;2040;50.924;11.604;2022-08-16T06:07:10;14.67;;;8.20;;
4051;SDS011;2040;50.924;11.604;2022-08-16T06:09:36;13.23;;;7.10;;
4051;SDS011;2040;50.924;11.604;2022-08-16T06:12:02;12.90;;;7.80;;
4051;SDS011;2040;50.924;11.604;2022-08-16T06:14:28;14.83;;;8.70;;
4051;SDS011;2040;50.924;11.604;2022-08-16T06:16:54;11.90;;;7.87;;
4051;SDS011;2040;50.924;11.604;2022-08-16T06:19:20;13.63;;;7.23;;
4051;SDS011;2040;50.924;11.604;2022-08-16T06:21:46;14.70;;;7.90;;
4051;SDS011;2040;50.924;11.604;2022-08-16T06:24:11;12.33;;;7.20;;
4051;SDS011;2040;50.924;11.604;2022-08-16T06:26:37;9.60;;;5.70;;
4051;SDS011;2040;50.924;11.604;2022-08-16T06:29:03;17.40;;;7.53;;
4051;SDS011;2040;50.924;11.604;2022-08-16T06:31:31;12.63;;;6.97;;
4051;SDS011;2040;50.924;11.604;2022-08-16T06:33:58;15.40;;;6.40;;
4051;SDS011;2040;50.924;11.604;2022-08-16T06:36:26;13.03;;;5.53;;
4051;SDS011;2040;50.924;11.604;2022-08-16T06:38:53;8.47;;;5.47;;
4051;SDS011;2040;50.924;11.604;2022-08-16T06:41:19;9.27;;;5.90;;
4051;SDS011;2040;50.924;11.604;2022-08-16T06:43:44;7.63;;;5.50;;
4051;SDS011;2040;50.924;11.604;2022-08-16T06:46:23;6.93;;;5.30;;
4051;SDS011;2040;50.924;11.604;2022-08-16T06:48:53;12.43;;;5.47;;
4051;SDS011;2040;50.924;11.604;2022-08-16T06:51:19;13.20;;;5.37;;
4051;SDS011;2040;50.924;11.604;2022-08-16T06:53:45;5.93;;;5.10;;
4051;SDS011;2040;50.924;11.604;2022-08-16T06:56:10;13.50;;;5.93;;
4051;SDS011;2040;50.924;11.604;2022-08-16T06:58:36;13.60;;;5.70;;
4051;SDS011;2040;50.924;11.604;2022-08-16T07:01:02;12.67;;;5.33;;
4051;SDS011;2040;50.924;11.604;2022-08-16T07:03:28;8.93;;;4.63;;
4051;SDS011;2040;50.924;11.604;2022-08-16T07:05:55;7.90;;;4.80;;
4051;SDS011;2040;50.924;11.604;2022-08-16T07:08:22;15.13;;;4.67;;
4051;SDS011;2040;50.924;11.604;2022-08-16T07:10:48;10.77;;;4.60;;
4051;SDS011;2040;50.924;11.604;2022-08-16T07:13:14;7.40;;;4.33;;
4051;SDS011;2040;50.924;11.604;2022-08-16T07:16:04;9.00;;;4.53;;
4051;SDS011;2040;50.924;11.604;2022-08-16T07:18:31;8.27;;;4.40;;
4051;SDS011;2040;50.924;11.604;2022-08-16T07:21:02;7.17;;;4.30;;
4051;SDS011;2040;50.924;11.604;2022-08-16T07:23:37;11.30;;;4.57;;
4051;SDS011;2040;50.924;11.604;2022-08-16T07:26:22;7.30;;;4.57;;
4051;SDS011;2040;50.924;11.604;2022-08-16T07:28:56;8.20;;;4.37;;
4051;SDS011;2040;50.924;11.604;2022-08-16T07:31:31;6.30;;;4.23;;
4051;SDS011;2040;50.924;11.604;2022-08-16T07:34:04;8.37;;;4.10;;
4051;SDS011;2040;50.924;11.604;2022-08-16T07:36:33;5.23;;;3.70;;
4051;SDS011;2040;50.924;11.604;2022-08-16T07:39:02;10.10;;;4.07;;
4051;SDS011;2040;50.924;11.604;2022-08-16T07:41:27;5.80;;;4.10;;
4051;SDS011;2040;50.924;11.604;2022-08-16T07:43:53;5.23;;;3.90;;
4051;SDS011;2040;50.924;11.604;2022-08-16T07:46:19;9.30;;;4.70;;
4051;SDS011;2040;50.924;11.604;2022-08-16T07:48:44;6.90;;;4.60;;
4051;SDS011;2040;50.924;11.604;2022-08-16T07:51:10;7.13;;;4.30;;
4051;SDS011;2040;50.924;11.604;2022-08-16T07:53:35;9.50;;;4.87;;
4051;SDS011;2040;50.924;11.604;2022-08-16T07:56:05;5.90;;;4.20;;
4051;SDS011;2040;50.924;11.604;2022-08-16T07:58:31;7.33;;;4.67;;
4051;SDS011;2040;50.924;11.604;2022-08-16T08:00:58;8.47;;;4.00;;
4051;SDS011;2040;50.924;11.604;2022-08-16T08:03:25;8.33;;;4.97;;
4051;SDS011;2040;50.924;11.604;2022-08-16T08:05:51;6.60;;;3.67;;
4051;SDS011;2040;50.924;11.604;2022-08-16T08:08:16;7.53;;;4.97;;
4051;SDS011;2040;50.924;11.604;2022-08-16T08:10:42;7.33;;;3.73;;
4051;SDS011;2040;50.924;11.604;2022-08-16T08:13:08;11.87;;;4.40;;
4051;SDS011;2040;50.924;11.604;2022-08-16T08:15:34;9.57;;;3.97;;
4051;SDS011;2040;50.924;11.604;2022-08-16T08:17:59;10.10;;;4.00;;
4051;SDS011;2040;50.924;11.604;2022-08-16T08:20:26;5.60;;;4.03;;
4051;SDS011;2040;50.924;11.604;2022-08-16T08:22:53;7.10;;;4.10;;
4051;SDS011;2040;50.924;11.604;2022-08-16T08:25:20;6.57;;;4.03;;
4051;SDS011;2040;50.924;11.604;2022-08-16T08:27:46;5.13;;;3.60;;
4051;SDS011;2040;50.924;11.604;2022-08-16T08:30:12;9.30;;;3.57;;
4051;SDS011;2040;50.924;11.604;2022-08-16T08:32:40;11.47;;;3.60;;
4051;SDS011;2040;50.924;11.604;2022-08-16T08:35:06;5.57;;;3.13;;
4051;SDS011;2040;50.924;11.604;2022-08-16T08:37:33;5.73;;;3.80;;
4051;SDS011;2040;50.924;11.604;2022-08-16T08:40:00;5.33;;;3.53;;
4051;SDS011;2040;50.924;11.604;2022-08-16T08:42:28;12.53;;;3.73;;
4051;SDS011;2040;50.924;11.604;2022-08-16T08:44:53;4.40;;;3.20;;
4051;SDS011;2040;50.924;11.604;2022-08-16T08:47:19;6.03;;;3.40;;
4051;SDS011;2040;50.924;11.604;2022-08-16T08:49:45;5.03;;;3.30;;
4051;SDS011;2040;50.924;11.604;2022-08-16T08:52:11;9.30;;;3.60;;
4051;SDS011;2040;50.924;11.604;2022-08-16T08:54:36;9.47;;;3.50;;
4051;SDS011;2040;50.924;11.604;2022-08-16T08:57:02;4.73;;;3.70;;
4051;SDS011;2040;50.924;11.604;2022-08-16T08:59:29;4.40;;;3.03;;
4051;SDS011;2040;50.924;11.604;2022-08-16T09:01:55;5.53;;;3.20;;
4051;SDS011;2040;50.924;11.604;2022-08-16T09:04:21;5.60;;;3.20;;
4051;SDS011;2040;50.924;11.604;2022-08-16T09:06:47;4.73;;;2.50;;
4051;SDS011;2040;50.924;11.604;2022-08-16T09:09:12;4.47;;;2.40;;
4051;SDS011;2040;50.924;11.604;2022-08-16T09:11:38;6.80;;;2.60;;
4051;SDS011;2040;50.924;11.604;2022-08-16T09:14:08;6.87;;;3.57;;
4051;SDS011;2040;50.924;11.604;2022-08-16T09:16:34;31.80;;;3.37;;
4051;SDS011;2040;50.924;11.604;2022-08-16T09:18:59;3.63;;;2.60;;
4051;SDS011;2040;50.924;11.604;2022-08-16T09:21:25;4.27;;;2.60;;
4051;SDS011;2040;50.924;11.604;2022-08-16T09:23:51;5.10;;;2.60;;
4051;SDS011;2040;50.924;11.604;2022-08-16T09:26:18;4.70;;;2.87;;
4051;SDS011;2040;50.924;11.604;2022-08-16T09:28:43;4.87;;;3.30;;
4051;SDS011;2040;50.924;11.604;2022-08-16T09:31:13;4.80;;;3.07;;
4051;SDS011;2040;50.924;11.604;2022-08-16T09:33:39;3.67;;;2.63;;
4051;SDS011;2040;50.924;11.604;2022-08-16T09:36:06;5.40;;;2.87;;
4051;SDS011;2040;50.924;11.604;2022-08-16T09:38:33;5.30;;;2.50;;
4051;SDS011;2040;50.924;11.604;2022-08-16T09:41:00;7.33;;;3.20;;
4051;SDS011;2040;50.924;11.604;2022-08-16T09:43:28;8.27;;;3.30;;
4051;SDS011;2040;50.924;11.604;2022-08-16T09:45:54;10.20;;;3.00;;
4051;SDS011;2040;50.924;11.604;2022-08-16T09:48:20;3.97;;;2.77;;
4051;SDS011;2040;50.924;11.604;2022-08-16T09:50:45;4.30;;;2.77;;
4051;SDS011;2040;50.924;11.604;2022-08-16T09:53:12;7.80;;;2.63;;
4051;SDS011;2040;50.924;11.604;2022-08-16T09:55:40;3.43;;;2.53;;
4051;SDS011;2040;50.924;11.604;2022-08-16T09:58:07;6.47;;;3.00;;
4051;SDS011;2040;50.924;11.604;2022-08-16T10:00:33;5.40;;;2.90;;
4051;SDS011;2040;50.924;11.604;2022-08-16T10:02:59;3.60;;;2.90;;
4051;SDS011;2040;50.924;11.604;2022-08-16T10:05:25;3.40;;;2.50;;
4051;SDS011;2040;50.924;11.604;2022-08-16T10:07:50;9.00;;;3.40;;
4051;SDS011;2040;50.924;11.604;2022-08-16T10:10:20;8.90;;;3.33;;
4051;SDS011;2040;50.924;11.604;2022-08-16T10:12:47;5.50;;;2.97;;
4051;SDS011;2040;50.924;11.604;2022-08-16T10:15:32;3.13;;;2.33;;
4051;SDS011;2040;50.924;11.604;2022-08-16T10:17:59;5.23;;;2.60;;
4051;SDS011;2040;50.924;11.604;2022-08-16T10:20:26;8.30;;;3.23;;
4051;SDS011;2040;50.924;11.604;2022-08-16T10:22:53;3.97;;;2.50;;
4051;SDS011;2040;50.924;11.604;2022-08-16T10:25:19;9.03;;;2.90;;
4051;SDS011;2040;50.924;11.604;2022-08-16T10:27:45;4.70;;;3.10;;
4051;SDS011;2040;50.924;11.604;2022-08-16T10:30:12;4.67;;;3.30;;
4051;SDS011;2040;50.924;11.604;2022-08-16T10:32:39;3.20;;;2.33;;
4051;SDS011;2040;50.924;11.604;2022-08-16T10:35:05;5.33;;;2.50;;
4051;SDS011;2040;50.924;11.604;2022-08-16T10:37:31;4.27;;;2.20;;
4051;SDS011;2040;50.924;11.604;2022-08-16T10:39:57;2.27;;;2.07;;
4051;SDS011;2040;50.924;11.604;2022-08-16T10:42:23;3.60;;;2.20;;
4051;SDS011;2040;50.924;11.604;2022-08-16T10:44:49;2.80;;;1.93;;
4051;SDS011;2040;50.924;11.604;2022-08-16T10:47:15;4.57;;;2.60;;
4051;SDS011;2040;50.924;11.604;2022-08-16T10:49:40;2.20;;;1.80;;
4051;SDS011;2040;50.924;11.604;2022-08-16T10:52:06;3.90;;;2.27;;
4051;SDS011;2040;50.924;11.604;2022-08-16T10:54:32;2.43;;;2.23;;
4051;SDS011;2040;50.924;11.604;2022-08-16T10:56:58;4.27;;;2.47;;
4051;SDS011;2040;50.924;11.604;2022-08-16T10:59:25;2.70;;;2.20;;
4051;SDS011;2040;50.924;11.604;2022-08-16T11:01:53;3.33;;;2.00;;
4051;SDS011;2040;50.924;11.604;2022-08-16T11:04:19;3.10;;;2.17;;
4051;SDS011;2040;50.924;11.604;2022-08-16T11:06:44;3.60;;;2.40;;
4051;SDS011;2040;50.924;11.604;2022-08-16T11:09:10;2.93;;;2.37;;
4051;SDS011;2040;50.924;11.604;2022-08-16T11:11:36;2.87;;;2.27;;
4051;SDS011;2040;50.924;11.604;2022-08-16T11:14:01;4.20;;;2.20;;
4051;SDS011;2040;50.924;11.604;2022-08-16T11:16:27;2.83;;;2.23;;
4051;SDS011;2040;50.924;11.604;2022-08-16T11:18:54;5.00;;;2.00;;
4051;SDS011;2040;50.924;11.604;2022-08-16T11:21:20;5.33;;;2.90;;
4051;SDS011;2040;50.924;11.604;2022-08-16T11:23:50;2.50;;;1.57;;
4051;SDS011;2040;50.924;11.604;2022-08-16T11:26:17;5.23;;;2.27;;
4051;SDS011;2040;50.924;11.604;2022-08-16T11:28:43;4.33;;;2.20;;
4051;SDS011;2040;50.924;11.604;2022-08-16T11:31:08;3.63;;;1.83;;
4051;SDS011;2040;50.924;11.604;2022-08-16T11:33:34;3.27;;;1.90;;
4051;SDS011;2040;50.924;11.604;2022-08-16T11:35:59;5.30;;;2.40;;
4051;SDS011;2040;50.924;11.604;2022-08-16T11:38:26;2.57;;;2.33;;
4051;SDS011;2040;50.924;11.604;2022-08-16T11:40:53;4.53;;;2.07;;
4051;SDS011;2040;50.924;11.604;2022-08-16T11:43:28;2.60;;;2.13;;
4051;SDS011;2040;50.924;11.604;2022-08-16T11:46:03;3.23;;;1.90;;
4051;SDS011;2040;50.924;11.604;2022-08-16T11:48:31;3.37;;;2.20;;
4051;SDS011;2040;50.924;11.604;2022-08-16T11:51:00;2.27;;;2.07;;
4051;SDS011;2040;50.924;11.604;2022-08-16T11:53:26;3.57;;;2.07;;
4051;SDS011;2040;50.924;11.604;2022-08-16T11:55:53;5.13;;;2.60;;
4051;SDS011;2040;50.924;11.604;2022-08-16T11:58:20;3.80;;;1.80;;
4051;SDS011;2040;50.924;11.604;2022-08-16T12:00:47;4.90;;;2.23;;
4051;SDS011;2040;50.924;11.604;2022-08-16T12:03:13;4.23;;;2.30;;
4051;SDS011;2040;50.924;11.604;2022-08-16T12:05:40;7.30;;;2.10;;
4051;SDS011;2040;50.924;11.604;2022-08-16T12:08:06;3.00;;;2.30;;
4051;SDS011;2040;50.924;11.604;2022-08-16T12:10:33;5.33;;;2.60;;
4051;SDS011;2040;50.924;11.604;2022-08-16T12:13:00;4.90;;;2.80;;
4051;SDS011;2040;50.924;11.604;2022-08-16T12:15:26;3.30;;;2.60;;
4051;SDS011;2040;50.924;11.604;2022-08-16T12:17:52;3.03;;;2.30;;
4051;SDS011;2040;50.924;11.604;2022-08-16T12:20:20;3.60;;;2.67;;
4051;SDS011;2040;50.924;11.604;2022-08-16T12:22:50;6.97;;;2.50;;
4051;SDS011;2040;50.924;11.604;2022-08-16T12:25:17;5.37;;;3.17;;
4051;SDS011;2040;50.924;11.604;2022-08-16T12:27:46;3.73;;;2.70;;
4051;SDS011;2040;50.924;11.604;2022-08-16T12:30:15;2.80;;;2.23;;
4051;SDS011;2040;50.924;11.604;2022-08-16T12:32:48;4.87;;;2.23;;
4051;SDS011;2040;50.924;11.604;2022-08-16T12:35:16;2.00;;;1.80;;
4051;SDS011;2040;50.924;11.604;2022-08-16T12:37:43;2.50;;;1.90;;
4051;SDS011;2040;50.924;11.604;2022-08-16T12:40:11;3.43;;;2.10;;
4051;SDS011;2040;50.924;11.604;2022-08-16T12:42:46;4.93;;;2.60;;
4051;SDS011;2040;50.924;11.604;2022-08-16T12:45:13;3.20;;;2.30;;
4051;SDS011;2040;50.924;11.604;2022-08-16T12:47:40;3.47;;;2.30;;
4051;SDS011;2040;50.924;11.604;2022-08-16T12:50:25;2.20;;;1.90;;
4051;SDS011;2040;50.924;11.604;2022-08-16T12:52:51;3.37;;;2.30;;
4051;SDS011;2040;50.924;11.604;2022-08-16T12:55:17;3.80;;;2.73;;
4051;SDS011;2040;50.924;11.604;2022-08-16T12:57:43;2.87;;;2.20;;
4051;SDS011;2040;50.924;11.604;2022-08-16T13:00:10;3.63;;;2.00;;
4051;SDS011;2040;50.924;11.604;2022-08-16T13:02:40;5.30;;;2.37;;
4051;SDS011;2040;50.924;11.604;2022-08-16T13:05:10;3.63;;;2.30;;
4051;SDS011;2040;50.924;11.604;2022-08-16T13:07:36;6.33;;;2.13;;
4051;SDS011;2040;50.924;11.604;2022-08-16T13:10:03;3.63;;;2.10;;
4051;SDS011;2040;50.924;11.604;2022-08-16T13:12:34;4.20;;;2.13;;
4051;SDS011;2040;50.924;11.604;2022-08-16T13:15:03;2.70;;;2.00;;
4051;SDS011;2040;50.924;11.604;2022-08-16T13:17:30;6.43;;;2.30;;
4051;SDS011;2040;50.924;11.604;2022-08-16T13:19:55;2.60;;;2.20;;
4051;SDS011;2040;50.924;11.604;2022-08-16T13:22:21;6.43;;;2.27;;
4051;SDS011;2040;50.924;11.604;2022-08-16T13:24:47;2.57;;;2.13;;
4051;SDS011;2040;50.924;11.604;2022-08-16T13:27:14;4.80;;;2.60;;
4051;SDS011;2040;50.924;11.604;2022-08-16T13:29:40;10.97;;;2.60;;
4051;SDS011;2040;50.924;11.604;2022-08-16T13:32:06;2.83;;;1.83;;
4051;SDS011;2040;50.924;11.604;2022-08-16T13:34:34;2.50;;;1.83;;
4051;SDS011;2040;50.924;11.604;2022-08-16T13:37:00;3.77;;;2.20;;
4051;SDS011;2040;50.924;11.604;2022-08-16T13:39:25;3.20;;;2.07;;
4051;SDS011;2040;50.924;11.604;2022-08-16T13:41:51;3.23;;;1.90;;
4051;SDS011;2040;50.924;11.604;2022-08-16T13:44:17;3.50;;;2.00;;
4051;SDS011;2040;50.924;11.604;2022-08-16T13:46:43;6.70;;;2.20;;
4051;SDS011;2040;50.924;11.604;2022-08-16T13:49:11;3.93;;;2.13;;
4051;SDS011;2040;50.924;11.604;2022-08-16T13:51:37;2.20;;;2.00;;
4051;SDS011;2040;50.924;11.604;2022-08-16T13:54:03;4.23;;;2.13;;
4051;SDS011;2040;50.924;11.604;2022-08-16T13:56:31;5.73;;;2.43;;
4051;SDS011;2040;50.924;11.604;2022-08-16T13:58:58;3.10;;;2.00;;
4051;SDS011;2040;50.924;11.604;2022-08-16T14:01:24;2.50;;;1.93;;
4051;SDS011;2040;50.924;11.604;2022-08-16T14:03:49;7.00;;;2.40;;
4051;SDS011;2040;50.924;11.604;2022-08-16T14:06:15;5.63;;;2.70;;
4051;SDS011;2040;50.924;11.604;2022-08-16T14:08:41;3.70;;;2.10;;
4051;SDS011;2040;50.924;11.604;2022-08-16T14:11:08;5.47;;;2.33;;
4051;SDS011;2040;50.924;11.604;2022-08-16T14:13:35;4.40;;;2.10;;
4051;SDS011;2040;50.924;11.604;2022-08-16T14:16:00;3.10;;;2.53;;
4051;SDS011;2040;50.924;11.604;2022-08-16T14:18:27;3.87;;;2.20;;
4051;SDS011;2040;50.924;11.604;2022-08-16T14:20:52;4.60;;;2.20;;
4051;SDS011;2040;50.924;11.604;2022-08-16T14:23:18;5.40;;;2.40;;
4051;SDS011;2040;50.924;11.604;2022-08-16T14:25:43;3.10;;;1.97;;
4051;SDS011;2040;50.924;11.604;2022-08-16T14:28:09;10.60;;;2.10;;
4051;SDS011;2040;50.924;11.604;2022-08-16T14:30:35;3.20;;;1.93;;
4051;SDS011;2040;50.924;11.604;2022-08-16T14:33:02;8.83;;;2.57;;
4051;SDS011;2040;50.924;11.604;2022-08-16T14:35:29;1.93;;;1.67;;
4051;SDS011;2040;50.924;11.604;2022-08-16T14:37:56;3.13;;;1.97;;
4051;SDS011;2040;50.924;11.604;2022-08-16T14:40:23;3.93;;;1.93;;
4051;SDS011;2040;50.924;11.604;2022-08-16T14:42:49;2.73;;;1.87;;
4051;SDS011;2040;50.924;11.604;2022-08-16T14:45:16;3.00;;;1.80;;
4051;SDS011;2040;50.924;11.604;2022-08-16T14:47:45;2.93;;;1.80;;
4051;SDS011;2040;50.924;11.604;2022-08-16T14:50:14;2.90;;;2.40;;
4051;SDS011;2040;50.924;11.604;2022-08-16T14:52:42;4.33;;;2.70;;
4051;SDS011;2040;50.924;11.604;2022-08-16T14:55:10;2.50;;;1.87;;
4051;SDS011;2040;50.924;11.604;2022-08-16T14:57:36;3.43;;;2.17;;
4051;SDS011;2040;50.924;11.604;2022-08-16T15:00:03;5.10;;;2.27;;
4051;SDS011;2040;50.924;11.604;2022-08-16T15:02:31;3.00;;;2.27;;
4051;SDS011;2040;50.924;11.604;2022-08-16T15:04:57;6.07;;;2.50;;
4051;SDS011;2040;50.924;11.604;2022-08-16T15:07:23;7.97;;;2.77;;
4051;SDS011;2040;50.924;11.604;2022-08-16T15:09:49;4.23;;;2.20;;
4051;SDS011;2040;50.924;11.604;2022-08-16T15:12:16;3.57;;;2.03;;
4051;SDS011;2040;50.924;11.604;2022-08-16T15:14:44;4.40;;;2.10;;
4051;SDS011;2040;50.924;11.604;2022-08-16T15:17:12;3.50;;;2.50;;
4051;SDS011;2040;50.924;11.604;2022-08-16T15:19:38;3.00;;;2.33;;
4051;SDS011;2040;50.924;11.604;2022-08-16T15:22:09;2.63;;;1.90;;
4051;SDS011;2040;50.924;11.604;2022-08-16T15:24:38;3.03;;;1.97;;
4051;SDS011;2040;50.924;11.604;2022-08-16T15:27:04;3.30;;;2.10;;